createdAt,value
2022-09-20T00:02:45.436Z,97889.41
2022-09-20T00:06:49.088Z,97889.25
2022-09-20T00:10:54.191Z,97880.44
2022-09-20T00:14:58.941Z,97885.13
2022-09-20T00:19:04.348Z,97888.06
2022-09-20T00:23:07.985Z,97896.19
2022-09-20T00:27:10.994Z,97893.44
2022-09-20T00:31:17.289Z,97891.66
2022-09-20T00:35:20.290Z,97883.00
2022-09-20T00:39:23.827Z,97897.84
2022-09-20T00:43:38.276Z,97885.28
2022-09-20T00:47:47.212Z,97884.16
2022-09-20T00:51:54.012Z,97883.69
2022-09-20T00:56:02.289Z,97891.88
2022-09-20T01:00:08.079Z,97887.66
2022-09-20T01:04:15.499Z,97887.31
2022-09-20T01:08:19.507Z,97885.88
2022-09-20T01:12:26.097Z,97882.78
2022-09-20T01:16:31.377Z,97883.78
2022-09-20T01:20:39.449Z,97872.69
2022-09-20T01:24:50.696Z,97877.63
2022-09-20T01:29:03.054Z,97872.88
2022-09-20T01:33:13.785Z,97871.75
2022-09-20T01:37:26.050Z,97872.56
2022-09-20T01:41:37.158Z,97873.41
2022-09-20T01:45:47.094Z,97870.63
2022-09-20T01:49:59.363Z,97866.19
2022-09-20T01:54:45.172Z,97873.06
2022-09-20T01:59:24.855Z,97867.03
2022-09-20T02:03:53.258Z,97872.25
2022-09-20T02:08:28.515Z,97870.78
2022-09-20T02:12:52.162Z,97869.94
2022-09-20T02:16:58.818Z,97867.50
2022-09-20T02:21:11.501Z,97866.53
2022-09-20T02:25:25.300Z,97873.06
2022-09-20T02:29:35.841Z,97867.69
2022-09-20T02:33:57.923Z,97866.72
2022-09-20T02:38:17.857Z,97863.94
2022-09-20T02:42:27.004Z,97869.16
2022-09-20T02:46:35.292Z,97871.94
2022-09-20T02:50:47.502Z,97870.78
2022-09-20T02:55:00.008Z,97876.00
2022-09-20T02:59:13.142Z,97879.44
2022-09-20T03:03:25.716Z,97876.31
2022-09-20T03:07:41.274Z,97886.44
2022-09-20T03:11:54.859Z,97883.19
2022-09-20T03:16:08.931Z,97885.97
2022-09-20T03:20:25.744Z,97875.00
2022-09-20T03:24:42.252Z,97884.78
2022-09-20T03:28:58.959Z,97882.53
2022-09-20T03:33:15.226Z,97889.69
2022-09-20T03:37:35.168Z,97887.53
2022-09-20T03:42:03.822Z,97886.06
2022-09-20T03:46:19.371Z,97889.47
2022-09-20T03:50:38.995Z,97889.00
2022-09-20T03:55:21.475Z,97889.81
2022-09-20T03:59:44.908Z,97889.97
2022-09-20T04:03:55.398Z,97892.59
2022-09-20T04:08:13.227Z,97890.13
2022-09-20T04:12:27.642Z,97891.75
2022-09-20T04:16:43.172Z,97895.34
2022-09-20T04:20:52.160Z,97898.59
2022-09-20T04:25:02.260Z,97900.41
2022-09-20T04:29:21.327Z,97913.47
2022-09-20T04:33:30.008Z,97917.03
2022-09-20T04:37:38.546Z,97907.56
2022-09-20T04:42:25.974Z,97912.94
2022-09-20T04:46:55.892Z,97918.34
2022-09-20T04:51:41.160Z,97920.13
2022-09-20T04:56:02.482Z,97931.38
2022-09-20T05:00:11.473Z,97930.91
2022-09-20T05:04:38.878Z,97927.31
2022-09-20T05:09:10.441Z,97931.69
2022-09-20T05:13:28.798Z,97930.06
2022-09-20T05:17:45.254Z,97936.28
2022-09-20T05:22:07.290Z,97929.56
2022-09-20T05:26:28.335Z,97924.34
2022-09-20T05:30:39.205Z,97930.53
2022-09-20T05:34:51.622Z,97945.38
2022-09-20T05:39:03.592Z,97947.97
2022-09-20T05:43:13.072Z,97946.03
2022-09-20T05:47:23.874Z,97944.09
2022-09-20T05:51:45.839Z,97947.84
2022-09-20T05:56:02.130Z,97951.31
2022-09-20T06:00:10.371Z,97961.16
2022-09-20T06:04:21.420Z,97961.97
2022-09-20T06:08:50.382Z,97961.84
2022-09-20T06:12:59.945Z,97963.97
2022-09-20T06:17:15.145Z,97958.44
2022-09-20T06:21:32.454Z,97969.03
2022-09-20T06:25:44.241Z,97964.16
2022-09-20T06:29:57.540Z,97974.13
2022-09-20T06:34:06.169Z,97974.78
2022-09-20T06:38:42.302Z,97962.84
2022-09-20T06:42:45.521Z,97965.75
2022-09-20T06:46:49.576Z,97969.88
2022-09-20T06:50:53.266Z,97964.13
2022-09-20T06:54:58.099Z,97969.53
2022-09-20T06:59:01.660Z,97964.13
2022-09-20T07:03:05.162Z,97973.72
2022-09-20T07:07:10.065Z,97975.78
2022-09-20T07:11:17.648Z,97974.75
2022-09-20T07:15:23.390Z,97981.53
2022-09-20T07:19:26.576Z,97987.03
2022-09-20T07:23:31.434Z,97989.47
2022-09-20T07:27:36.768Z,97987.31
2022-09-20T07:31:39.851Z,97994.22
2022-09-20T07:35:43.545Z,97991.00
2022-09-20T07:39:47.484Z,97997.91
2022-09-20T07:43:52.854Z,97996.75
2022-09-20T07:47:56.022Z,97994.28
2022-09-20T07:52:00.278Z,97994.88
2022-09-20T07:56:05.950Z,97990.84
2022-09-20T08:00:13.029Z,97999.34
2022-09-20T08:04:16.637Z,97996.22
2022-09-20T08:08:20.657Z,97994.69
2022-09-20T08:16:50.248Z,98018.06
2022-09-20T08:20:53.345Z,98016.22
2022-09-20T08:24:56.348Z,98023.41
2022-09-20T08:29:01.751Z,98024.91
2022-09-20T08:33:07.066Z,98025.25
2022-09-20T08:37:10.566Z,98030.63
2022-09-20T08:41:17.856Z,98027.53
2022-09-20T08:45:34.474Z,98029.00
2022-09-20T08:49:46.157Z,98025.59
2022-09-20T08:53:52.915Z,98010.03
2022-09-20T08:57:58.185Z,98010.84
2022-09-20T09:02:01.966Z,98009.31
2022-09-20T09:06:11.754Z,98004.22
2022-09-20T09:10:17.531Z,98013.25
2022-09-20T09:14:44.912Z,98006.00
2022-09-20T09:18:49.406Z,98001.00
2022-09-20T09:23:03.182Z,98006.06
2022-09-20T09:27:10.845Z,97991.63
2022-09-20T09:31:22.727Z,97989.09
2022-09-20T09:35:30.115Z,97999.19
2022-09-20T09:39:38.711Z,97990.22
2022-09-20T09:43:42.199Z,97987.97
2022-09-20T09:47:46.171Z,97973.09
2022-09-20T09:52:06.104Z,97968.47
2022-09-20T09:56:47.859Z,97971.09
2022-09-20T10:00:54.051Z,97984.09
2022-09-20T10:05:04.861Z,97975.56
2022-09-20T10:09:24.999Z,97972.69
2022-09-20T10:13:40.599Z,97971.31
2022-09-20T10:17:58.180Z,97982.78
2022-09-20T10:22:09.988Z,97974.28
2022-09-20T10:26:27.742Z,97965.38
2022-09-20T10:30:46.900Z,97969.47
2022-09-20T10:35:14.809Z,97968.72
2022-09-20T10:39:24.126Z,97956.94
2022-09-20T10:43:40.818Z,97965.22
2022-09-20T10:47:57.005Z,97949.63
2022-09-20T10:52:35.899Z,97939.63
2022-09-20T10:56:45.247Z,97930.09
2022-09-20T11:00:56.789Z,97935.19
2022-09-20T11:05:20.522Z,97934.41
2022-09-20T11:09:29.026Z,97939.81
2022-09-20T11:13:39.926Z,97954.84
2022-09-20T11:17:46.866Z,97958.09
2022-09-20T11:21:56.012Z,97956.25
2022-09-20T11:26:06.897Z,97968.63
2022-09-20T11:30:18.313Z,97955.44
2022-09-20T11:34:28.904Z,97959.91
2022-09-20T11:38:40.417Z,97957.28
2022-09-20T11:42:44.835Z,97962.38
2022-09-20T11:46:54.058Z,97956.06
2022-09-20T11:51:30.058Z,97951.56
2022-09-20T11:55:44.318Z,97945.03
2022-09-20T11:59:53.217Z,97944.09
2022-09-20T12:04:20.684Z,97938.63
2022-09-20T12:08:27.263Z,97944.56
2022-09-20T12:12:39.458Z,97937.19
2022-09-20T12:16:44.553Z,97934.88
2022-09-20T12:21:09.020Z,97931.88
2022-09-20T12:25:39.100Z,97926.09
2022-09-20T12:30:03.946Z,97933.56
2022-09-20T12:34:36.648Z,97929.31
2022-09-20T12:38:47.171Z,97921.97
2022-09-20T12:42:58.106Z,97932.41
2022-09-20T12:47:06.918Z,97932.69
2022-09-20T12:51:40.995Z,97934.94
2022-09-20T12:55:53.491Z,97932.09
2022-09-20T12:59:59.128Z,97935.16
2022-09-20T13:04:40.943Z,97936.78
2022-09-20T13:08:49.519Z,97933.69
2022-09-20T13:12:57.860Z,97934.09
2022-09-20T13:17:04.768Z,97935.75
2022-09-20T13:21:09.559Z,97937.81
2022-09-20T13:25:16.534Z,97929.47
2022-09-20T13:29:27.941Z,97938.00
2022-09-20T13:33:31.427Z,97931.44
2022-09-20T13:37:35.983Z,97933.47
2022-09-20T13:41:40.928Z,97930.00
2022-09-20T13:45:45.627Z,97929.19
2022-09-20T13:49:49.747Z,97931.63
2022-09-20T13:53:52.998Z,97932.88
2022-09-20T13:58:01.957Z,97937.00
2022-09-20T14:02:05.989Z,97944.09
2022-09-20T14:06:16.642Z,97949.56
2022-09-20T14:10:33.085Z,97953.75
2022-09-20T14:14:38.530Z,97959.84
2022-09-20T14:18:43.040Z,97971.59
2022-09-20T14:22:47.097Z,97973.75
2022-09-20T14:27:02.684Z,97968.16
2022-09-20T14:31:15.019Z,97969.97
2022-09-20T14:35:20.482Z,97969.03
2022-09-20T14:39:24.112Z,97973.34
2022-09-20T14:43:32.040Z,97983.50
2022-09-20T14:47:41.377Z,97980.25
2022-09-20T14:51:46.015Z,97972.72
2022-09-20T14:56:10.558Z,97979.59
2022-09-20T15:00:16.453Z,97987.41
2022-09-20T15:04:22.794Z,97981.69
2022-09-20T15:08:26.706Z,97992.28
2022-09-20T15:12:30.954Z,98000.66
2022-09-20T15:16:35.080Z,98003.69
2022-09-20T15:20:40.139Z,97996.16
2022-09-20T15:24:44.797Z,97995.34
2022-09-20T15:28:48.840Z,97999.88
2022-09-20T15:32:53.656Z,98005.47
2022-09-20T15:36:59.033Z,98002.22
2022-09-20T15:41:04.815Z,98002.59
2022-09-20T15:45:10.254Z,98003.81
2022-09-20T15:49:14.093Z,98003.75
2022-09-20T15:53:18.600Z,98005.56
2022-09-20T15:57:22.340Z,98011.31
2022-09-20T16:01:26.300Z,98014.63
2022-09-20T16:05:29.796Z,98009.13
2022-09-20T16:09:36.132Z,98001.00
2022-09-20T16:13:39.658Z,98013.44
2022-09-20T16:18:00.678Z,98011.22
2022-09-20T16:22:04.127Z,98022.72
2022-09-20T16:26:13.168Z,98033.06
2022-09-20T16:30:16.979Z,98044.38
2022-09-20T16:34:22.317Z,98040.47
2022-09-20T16:38:25.376Z,98048.81
2022-09-20T16:42:30.333Z,98059.47
2022-09-20T16:46:37.370Z,98065.03
2022-09-20T16:50:40.899Z,98070.09
2022-09-20T16:54:44.033Z,98073.06
2022-09-20T16:58:49.302Z,98074.22
2022-09-20T17:02:53.501Z,98078.50
2022-09-20T17:06:56.513Z,98080.81
2022-09-20T17:11:03.737Z,98088.19
2022-09-20T17:15:12.274Z,98096.84
2022-09-20T17:19:18.499Z,98096.22
2022-09-20T17:23:22.224Z,98096.19
2022-09-20T17:27:25.875Z,98111.03
2022-09-20T17:31:33.815Z,98110.88
2022-09-20T17:35:37.400Z,98116.75
2022-09-20T17:39:41.737Z,98113.81
2022-09-20T17:43:46.822Z,98118.53
2022-09-20T17:47:52.173Z,98129.16
2022-09-20T17:51:58.248Z,98134.72
2022-09-20T17:56:02.512Z,98135.53
2022-09-20T18:00:06.819Z,98152.22
2022-09-20T18:04:12.608Z,98151.38
2022-09-20T18:08:17.087Z,98151.69
2022-09-20T18:12:21.549Z,98176.22
2022-09-20T18:16:25.665Z,98194.66
2022-09-20T18:20:30.445Z,98187.94
2022-09-20T18:24:34.056Z,98191.84
2022-09-20T18:28:37.557Z,98194.13
2022-09-20T18:32:44.495Z,98197.53
2022-09-20T18:36:54.807Z,98198.00
2022-09-20T18:41:00.954Z,98202.16
2022-09-20T18:45:04.566Z,98202.06
2022-09-20T18:49:10.859Z,98209.00
2022-09-20T18:53:15.787Z,98210.66
2022-09-20T18:57:19.879Z,98209.41
2022-09-20T19:02:02.505Z,98219.94
2022-09-20T19:06:12.051Z,98220.53
2022-09-20T19:10:24.997Z,98219.84
2022-09-20T19:14:31.692Z,98223.16
2022-09-20T19:18:57.143Z,98242.06
2022-09-20T19:23:13.418Z,98250.56
2022-09-20T19:27:19.015Z,98249.44
2022-09-20T19:31:27.363Z,98245.69
2022-09-20T19:35:38.748Z,98248.16
2022-09-20T19:39:58.868Z,98242.94
2022-09-20T19:44:18.512Z,98249.97
2022-09-20T19:48:30.904Z,98251.25
2022-09-20T19:52:34.771Z,98257.06
2022-09-20T19:56:48.903Z,98255.03
2022-09-20T20:00:54.144Z,98253.31
2022-09-20T20:04:58.604Z,98258.63
2022-09-20T20:09:09.982Z,98253.47
2022-09-20T20:13:37.902Z,98257.94
2022-09-20T20:17:53.939Z,98265.66
2022-09-20T20:22:00.567Z,98268.97
2022-09-20T20:26:09.373Z,98274.94
2022-09-20T20:30:13.449Z,98268.00
2022-09-20T20:34:17.928Z,98283.38
2022-09-20T20:38:22.918Z,98272.56
2022-09-20T20:42:27.983Z,98274.63
2022-09-20T20:46:32.719Z,98280.81
2022-09-20T20:50:37.856Z,98278.06
2022-09-20T20:54:41.317Z,98282.31
2022-09-20T20:58:45.551Z,98283.13
2022-09-20T21:02:50.024Z,98295.03
2022-09-20T21:06:54.968Z,98296.00
2022-09-20T21:11:02.282Z,98302.19
2022-09-20T21:15:07.046Z,98303.97
2022-09-20T21:19:15.265Z,98303.00
2022-09-20T21:23:19.697Z,98307.78
2022-09-20T21:27:23.270Z,98315.47
2022-09-20T21:31:27.827Z,98311.59
2022-09-20T21:35:31.347Z,98319.81
2022-09-20T21:39:36.195Z,98331.31
2022-09-20T21:43:42.057Z,98327.44
2022-09-20T21:47:50.260Z,98335.66
2022-09-20T21:51:54.003Z,98324.94
2022-09-20T21:55:59.725Z,98332.16
2022-09-20T22:00:03.409Z,98333.81
2022-09-20T22:04:08.259Z,98332.84
2022-09-20T22:08:11.496Z,98330.25
2022-09-20T22:12:17.573Z,98337.09
2022-09-20T22:16:23.531Z,98335.47
2022-09-20T22:20:26.676Z,98330.38
2022-09-20T22:24:30.510Z,98332.31
2022-09-20T22:28:37.182Z,98335.88
2022-09-20T22:32:40.851Z,98338.63
2022-09-20T22:36:44.876Z,98335.38
2022-09-20T22:40:58.488Z,98335.66
2022-09-20T22:45:02.990Z,98339.06
2022-09-20T22:49:07.170Z,98338.41
2022-09-20T22:53:10.670Z,98330.59
2022-09-20T22:57:13.994Z,98334.69
2022-09-20T23:01:23.083Z,98339.91
2022-09-20T23:05:26.493Z,98337.97
2022-09-20T23:09:29.841Z,98343.19
2022-09-20T23:13:33.299Z,98347.44
2022-09-20T23:17:38.215Z,98349.91
2022-09-20T23:21:42.968Z,98347.16
2022-09-20T23:25:47.139Z,98341.94
2022-09-20T23:29:50.285Z,98347.16
2022-09-20T23:33:56.846Z,98355.63
2022-09-20T23:37:59.925Z,98357.56
2022-09-20T23:42:03.382Z,98353.44
2022-09-20T23:46:07.715Z,98353.63
2022-09-20T23:50:12.711Z,98365.00
2022-09-20T23:54:15.857Z,98364.34
2022-09-20T23:58:19.425Z,98353.22
